Time;durP1;ratioP1;P1;durP2;ratioP2;P2;SDS_P1;SDS_P2;PMS_P1;PMS_P2;Temp;Humidity;BMP_temperature;BMP_pressure;BME280_temperature;BME280_humidity;BME280_pressure;Samples;Min_cycle;Max_cycle;Signal;HPM_P1;HPM_P2
2021/04/19 00:00:55;;;;;;;10.07;6.03;;;8.70;99.90;;;;;;5009134;28;20243;-56
2021/04/19 00:03:22;;;;;;;8.73;6.37;;;8.70;99.90;;;;;;5009219;28;20261;-56
2021/04/19 00:05:50;;;;;;;10.10;6.13;;;8.70;99.90;;;;;;5009579;28;20241;-57
2021/04/19 00:08:18;;;;;;;11.90;6.47;;;8.70;99.90;;;;;;5010037;28;20713;-57
2021/04/19 00:10:46;;;;;;;9.63;5.97;;;8.70;99.90;;;;;;5009273;28;21753;-54
2021/04/19 00:13:14;;;;;;;12.00;6.83;;;8.80;99.90;;;;;;5009169;28;20254;-56
2021/04/19 00:15:41;;;;;;;11.00;6.67;;;8.70;99.90;;;;;;5009284;28;20663;-56
2021/04/19 00:18:08;;;;;;;13.10;7.03;;;8.70;99.90;;;;;;5009245;28;20291;-56
2021/04/19 00:20:39;;;;;;;13.53;6.83;;;8.60;99.90;;;;;;5010181;28;20233;-57
2021/04/19 00:23:10;;;;;;;10.80;7.03;;;8.70;99.90;;;;;;5018353;28;20258;-57
2021/04/19 00:25:39;;;;;;;11.97;7.30;;;8.70;99.90;;;;;;5039763;28;20312;-57
2021/04/19 00:28:07;;;;;;;10.50;7.83;;;8.70;99.90;;;;;;5033056;28;20586;-57
2021/04/19 00:30:35;;;;;;;11.77;7.73;;;8.70;99.90;;;;;;5032587;28;20247;-56
2021/04/19 00:33:02;;;;;;;11.33;7.60;;;8.70;99.90;;;;;;5028672;28;20303;-56
2021/04/19 00:35:38;;;;;;;13.70;7.87;;;8.70;99.90;;;;;;5020126;28;20245;-57
2021/04/19 00:38:06;;;;;;;12.97;8.40;;;8.70;99.90;;;;;;5012972;28;20765;-55
2021/04/19 00:40:35;;;;;;;13.57;8.13;;;8.70;99.90;;;;;;5013852;28;20238;-56
2021/04/19 00:43:05;;;;;;;13.17;9.00;;;8.60;99.90;;;;;;5014768;28;20245;-57
2021/04/19 00:45:33;;;;;;;14.13;8.57;;;8.60;99.90;;;;;;5012827;28;20279;-55
2021/04/19 00:48:00;;;;;;;14.47;9.37;;;8.50;99.90;;;;;;5011425;28;20234;-57
2021/04/19 00:50:32;;;;;;;12.23;9.43;;;8.60;99.90;;;;;;5012775;28;20368;-57
2021/04/19 00:53:02;;;;;;;18.17;9.87;;;8.50;99.90;;;;;;5012244;28;20690;-56
2021/04/19 00:55:30;;;;;;;14.57;9.50;;;8.50;99.90;;;;;;5012156;28;20238;-57
2021/04/19 00:57:58;;;;;;;17.60;10.10;;;8.50;99.90;;;;;;5030210;28;20296;-53
2021/04/19 01:00:31;;;;;;;13.87;10.27;;;8.50;99.90;;;;;;5031846;28;20236;-57
2021/04/19 01:02:59;;;;;;;18.10;10.27;;;8.50;99.90;;;;;;5033208;28;20253;-56
2021/04/19 01:05:32;;;;;;;17.30;10.30;;;8.40;99.90;;;;;;5032118;28;20237;-53
2021/04/19 01:08:01;;;;;;;18.67;10.20;;;8.40;99.90;;;;;;5031758;28;20240;-57
2021/04/19 01:10:34;;;;;;;16.53;10.63;;;8.40;99.90;;;;;;5031852;28;20701;-57
2021/04/19 01:13:02;;;;;;;16.80;10.97;;;8.40;99.90;;;;;;5028923;28;20236;-56
2021/04/19 01:15:30;;;;;;;18.50;11.17;;;8.30;99.90;;;;;;5031640;28;20741;-57
2021/04/19 01:17:58;;;;;;;18.30;11.77;;;8.40;99.90;;;;;;5032478;28;20242;-56
2021/04/19 01:20:30;;;;;;;18.23;12.10;;;8.30;99.90;;;;;;5013813;28;20813;-56
2021/04/19 01:23:10;;;;;;;16.33;12.07;;;8.30;99.90;;;;;;5013524;28;20248;-57
2021/04/19 01:25:38;;;;;;;16.83;11.20;;;8.30;99.90;;;;;;5031709;28;20325;-57
2021/04/19 01:28:08;;;;;;;18.10;12.30;;;8.20;99.90;;;;;;5024329;28;20253;-56
2021/04/19 01:30:39;;;;;;;20.43;13.07;;;8.20;99.90;;;;;;5021569;28;20238;-57
2021/04/19 01:33:07;;;;;;;18.27;12.73;;;8.20;99.90;;;;;;5033471;28;20871;-56
2021/04/19 01:35:36;;;;;;;19.77;13.33;;;8.20;99.90;;;;;;5023418;28;20236;-56
2021/04/19 01:38:07;;;;;;;18.50;13.23;;;8.20;99.90;;;;;;5023470;28;20700;-57
2021/04/19 01:40:36;;;;;;;21.40;13.57;;;8.20;99.90;;;;;;5049861;28;20286;-57
2021/04/19 01:43:05;;;;;;;17.87;13.33;;;8.30;99.90;;;;;;5049740;28;20649;-57
2021/04/19 01:45:45;;;;;;;21.73;13.63;;;8.30;99.90;;;;;;5037523;28;20244;-57
2021/04/19 01:48:13;;;;;;;21.33;14.07;;;8.30;99.90;;;;;;5012066;28;20255;-57
2021/04/19 01:50:43;;;;;;;20.77;13.83;;;8.40;99.90;;;;;;5031099;28;20244;-57
2021/04/19 01:53:14;;;;;;;19.93;13.70;;;8.40;99.90;;;;;;5029962;28;20287;-57
2021/04/19 01:55:44;;;;;;;20.93;15.03;;;8.40;99.90;;;;;;5029926;28;20240;-57
2021/04/19 01:58:15;;;;;;;19.73;14.87;;;8.40;99.90;;;;;;5031479;28;20251;-57
2021/04/19 02:00:46;;;;;;;24.17;14.93;;;8.30;99.90;;;;;;5029919;28;20599;-56
2021/04/19 02:03:29;;;;;;;26.67;18.77;;;8.40;99.90;;;;;;5031064;28;20224;-58
2021/04/19 02:06:05;;;;;;;23.93;18.33;;;8.40;99.90;;;;;;5031079;28;20303;-57
2021/04/19 02:08:51;;;;;;;24.10;17.77;;;8.40;99.90;;;;;;5031268;28;20240;-58
2021/04/19 02:11:29;;;;;;;26.67;18.60;;;8.40;99.90;;;;;;5046397;28;20242;-57
2021/04/19 02:14:09;;;;;;;26.57;19.53;;;8.40;99.90;;;;;;5045216;28;20308;-55
2021/04/19 02:16:45;;;;;;;28.27;20.93;;;8.40;99.90;;;;;;5028681;28;20244;-54
2021/04/19 02:19:22;;;;;;;38.97;24.37;;;8.40;99.90;;;;;;5029120;28;20237;-56
2021/04/19 02:21:53;;;;;;;37.67;25.63;;;8.30;99.90;;;;;;5011515;28;20269;-52
2021/04/19 02:24:26;;;;;;;40.07;25.23;;;8.20;99.90;;;;;;5029734;28;20241;-54
2021/04/19 02:26:58;;;;;;;38.10;26.77;;;8.30;99.90;;;;;;5028151;28;20350;-56
2021/04/19 02:29:35;;;;;;;43.03;28.60;;;8.30;99.90;;;;;;5021326;28;20255;-57
2021/04/19 02:32:09;;;;;;;37.93;28.00;;;8.30;99.90;;;;;;5027923;28;20323;-54
2021/04/19 02:34:42;;;;;;;41.17;28.40;;;8.30;99.90;;;;;;5010906;28;20224;-55
2021/04/19 02:37:12;;;;;;;38.50;28.67;;;8.30;99.90;;;;;;5028060;28;20323;-55
2021/04/19 02:39:43;;;;;;;38.83;27.97;;;8.30;99.90;;;;;;5027624;28;20724;-54
2021/04/19 02:42:13;;;;;;;44.67;29.73;;;8.30;99.90;;;;;;5027406;28;20243;-55
2021/04/19 02:44:41;;;;;;;44.90;29.53;;;8.20;99.90;;;;;;5027028;28;20331;-55
2021/04/19 02:47:42;;;;;;;40.13;30.50;;;8.30;99.90;;;;;;5027676;28;20245;-56
2021/04/19 02:50:18;;;;;;;45.10;30.93;;;8.30;99.90;;;;;;5026950;28;20652;-54
2021/04/19 02:53:11;;;;;;;47.53;32.47;;;8.30;99.90;;;;;;5028716;28;20259;-56
2021/04/19 02:55:41;;;;;;;48.13;33.20;;;8.30;99.90;;;;;;5029197;28;20241;-54
2021/04/19 02:58:11;;;;;;;47.10;32.60;;;8.20;99.90;;;;;;5028734;28;20226;-56
2021/04/19 03:00:47;;;;;;;45.37;31.40;;;8.20;99.90;;;;;;5012968;28;20614;-57
2021/04/19 03:03:24;;;;;;;47.50;32.07;;;8.30;99.90;;;;;;5028603;28;20252;-54
2021/04/19 03:05:57;;;;;;;44.67;31.37;;;8.20;99.90;;;;;;5011927;28;20285;-55
2021/04/19 03:08:39;;;;;;;47.77;32.27;;;8.20;99.90;;;;;;5011121;28;20236;-57
2021/04/19 03:11:16;;;;;;;44.77;31.97;;;8.20;99.90;;;;;;5027061;28;20716;-54
2021/04/19 03:13:51;;;;;;;46.83;31.90;;;8.20;99.90;;;;;;5027264;28;20286;-57
2021/04/19 03:16:40;;;;;;;48.63;32.50;;;8.20;99.90;;;;;;5022163;28;20247;-55
2021/04/19 03:19:11;;;;;;;46.07;30.53;;;8.20;99.90;;;;;;5012410;28;20233;-52
2021/04/19 03:21:42;;;;;;;45.13;29.77;;;8.10;99.90;;;;;;5002859;28;20290;-56
2021/04/19 03:24:14;;;;;;;51.63;33.30;;;8.10;99.90;;;;;;5016280;28;20653;-55
2021/04/19 03:27:05;;;;;;;51.23;33.13;;;8.10;99.90;;;;;;5007520;28;20233;-54
2021/04/19 03:29:39;;;;;;;50.20;32.57;;;8.10;99.90;;;;;;5011265;28;20311;-52
2021/04/19 03:32:16;;;;;;;56.08;42.65;;;8.00;99.90;;;;;;5008229;28;20484;-57
2021/04/19 03:34:48;;;;;;;51.67;35.77;;;7.90;99.90;;;;;;5010654;28;20236;-54
2021/04/19 03:37:24;;;;;;;49.03;35.00;;;7.90;99.90;;;;;;5010574;28;20240;-56
2021/04/19 03:39:58;;;;;;;53.73;34.07;;;7.90;99.90;;;;;;5028382;28;20241;-55
2021/04/19 03:42:37;;;;;;;45.53;32.33;;;7.90;99.90;;;;;;5027590;28;20271;-57
2021/04/19 03:45:13;;;;;;;52.43;33.40;;;8.00;99.90;;;;;;5034647;28;20227;-57
2021/04/19 03:48:02;;;;;;;49.33;31.93;;;8.00;99.90;;;;;;5047800;28;20225;-56
2021/04/19 03:50:48;;;;;;;50.23;34.07;;;8.10;99.90;;;;;;5046326;28;20655;-55
2021/04/19 03:53:20;;;;;;;47.60;33.63;;;8.10;99.90;;;;;;5029953;28;20239;-54
2021/04/19 03:55:49;;;;;;;48.80;32.70;;;8.10;99.90;;;;;;5048203;28;20248;-55
2021/04/19 03:58:22;;;;;;;41.60;29.13;;;8.10;99.90;;;;;;5030113;28;20242;-54
2021/04/19 04:00:53;;;;;;;50.33;33.73;;;8.20;99.90;;;;;;5039703;28;20261;-54
2021/04/19 04:03:54;;;;;;;45.97;29.50;;;8.30;99.90;;;;;;5017978;28;20240;-57
2021/04/19 04:06:32;;;;;;;53.30;34.17;;;8.30;99.90;;;;;;5026637;28;20310;-57
2021/04/19 04:09:30;;;;;;;45.57;31.97;;;8.20;99.90;;;;;;5022089;28;20333;-57
2021/04/19 04:11:57;;;;;;;46.77;31.97;;;8.10;99.90;;;;;;5007959;28;20237;-57
2021/04/19 04:14:35;;;;;;;46.13;32.30;;;8.10;99.90;;;;;;5006806;28;20241;-54
2021/04/19 04:17:04;;;;;;;42.10;30.27;;;8.10;99.90;;;;;;5007090;28;20260;-56
2021/04/19 04:19:52;;;;;;;45.37;30.30;;;8.10;99.90;;;;;;5006817;28;20308;-57
2021/04/19 04:22:21;;;;;;;43.10;31.20;;;8.10;99.90;;;;;;5017018;28;20291;-53
2021/04/19 04:24:56;;;;;;;44.47;29.07;;;8.10;99.90;;;;;;5020710;28;20290;-55
2021/04/19 04:27:24;;;;;;;37.80;28.87;;;8.10;99.90;;;;;;5027197;28;20713;-53
2021/04/19 04:29:53;;;;;;;40.43;29.13;;;8.20;99.90;;;;;;5028422;28;20252;-55
2021/04/19 04:32:39;;;;;;;36.90;27.50;;;8.20;99.90;;;;;;5047334;28;20587;-54
2021/04/19 04:35:25;;;;;;;43.30;28.90;;;8.20;99.90;;;;;;5048077;28;20255;-57
2021/04/19 04:38:07;;;;;;;45.43;30.20;;;8.20;99.90;;;;;;5029585;28;20224;-57
2021/04/19 04:40:45;;;;;;;45.00;31.83;;;8.10;99.90;;;;;;5046109;28;20241;-55
2021/04/19 04:43:18;;;;;;;44.60;29.27;;;8.10;99.90;;;;;;5041265;28;20235;-56
2021/04/19 04:45:48;;;;;;;46.00;30.57;;;8.10;99.90;;;;;;5047749;28;20247;-52
2021/04/19 04:48:23;;;;;;;41.77;30.37;;;8.10;99.90;;;;;;5047571;28;20285;-56
2021/04/19 04:50:57;;;;;;;45.03;30.70;;;8.00;99.90;;;;;;5046800;28;20289;-54
2021/04/19 04:53:32;;;;;;;45.17;30.63;;;8.00;99.90;;;;;;5029529;28;20236;-54
2021/04/19 04:56:09;;;;;;;46.13;30.87;;;8.10;99.90;;;;;;5047446;28;20328;-54
2021/04/19 04:58:36;;;;;;;45.03;31.57;;;8.10;99.90;;;;;;5047419;28;20287;-52
2021/04/19 05:01:08;;;;;;;50.80;33.87;;;8.20;99.90;;;;;;5043597;28;20585;-52
2021/04/19 05:03:37;;;;;;;57.40;34.53;;;8.10;99.90;;;;;;5019309;28;20241;-52
2021/04/19 05:06:11;;;;;;;54.50;35.43;;;8.00;99.90;;;;;;5026439;28;20228;-53
2021/04/19 05:08:39;;;;;;;56.53;36.63;;;8.00;99.90;;;;;;5034047;28;20743;-54
2021/04/19 05:11:09;;;;;;;55.50;35.97;;;7.90;99.90;;;;;;5030384;28;20236;-55
2021/04/19 05:13:36;;;;;;;61.07;38.17;;;8.00;99.90;;;;;;5030600;28;20264;-54
2021/04/19 05:16:06;;;;;;;53.23;33.30;;;8.00;99.90;;;;;;5030578;28;20237;-55
2021/04/19 05:18:33;;;;;;;65.10;39.83;;;8.10;99.90;;;;;;5016576;28;20234;-55
2021/04/19 05:21:03;;;;;;;61.03;39.40;;;8.10;99.90;;;;;;5023810;28;20665;-53
2021/04/19 05:23:30;;;;;;;63.00;39.27;;;8.10;99.90;;;;;;5029518;28;20237;-53
2021/04/19 05:26:02;;;;;;;64.90;39.23;;;8.10;99.90;;;;;;5031277;28;20726;-54
2021/04/19 05:28:30;;;;;;;62.10;37.77;;;8.10;99.90;;;;;;5019371;28;20701;-54
2021/04/19 05:30:58;;;;;;;57.60;36.20;;;8.10;99.90;;;;;;5013437;28;20316;-53
2021/04/19 05:33:26;;;;;;;63.50;38.20;;;8.00;99.90;;;;;;5020934;28;20320;-55
2021/04/19 05:35:53;;;;;;;57.77;36.60;;;8.10;99.90;;;;;;5027064;28;20645;-52
2021/04/19 05:38:23;;;;;;;58.90;37.23;;;8.10;99.90;;;;;;5025073;28;20634;-56
2021/04/19 05:40:57;;;;;;;59.83;37.70;;;8.10;99.90;;;;;;5027917;28;20243;-56
2021/04/19 05:43:25;;;;;;;60.40;38.37;;;8.10;99.90;;;;;;5028113;28;20848;-52
2021/04/19 05:45:55;;;;;;;62.67;38.83;;;8.10;99.90;;;;;;5027220;28;20246;-55
2021/04/19 05:48:23;;;;;;;64.97;40.63;;;8.20;99.90;;;;;;5026018;28;20256;-56
2021/04/19 05:50:55;;;;;;;60.70;37.60;;;8.10;99.90;;;;;;5016921;28;20242;-54
2021/04/19 05:53:23;;;;;;;58.70;39.33;;;8.20;99.90;;;;;;5017768;28;20237;-53
2021/04/19 05:55:58;;;;;;;63.63;39.13;;;8.20;99.90;;;;;;5010825;28;20263;-56
2021/04/19 05:58:32;;;;;;;67.87;40.90;;;8.20;99.90;;;;;;5010352;28;20724;-52
2021/04/19 06:01:07;;;;;;;64.30;40.97;;;8.20;99.90;;;;;;5010077;28;20237;-56
2021/04/19 06:03:43;;;;;;;63.10;41.43;;;8.30;99.90;;;;;;5018807;28;20704;-54
2021/04/19 06:06:19;;;;;;;65.57;41.97;;;8.30;99.90;;;;;;5013675;28;20263;-56
2021/04/19 06:09:00;;;;;;;61.60;40.80;;;8.40;99.90;;;;;;5009318;28;20253;-57
2021/04/19 06:11:43;;;;;;;64.87;40.93;;;8.40;99.90;;;;;;5007973;28;20332;-54
2021/04/19 06:14:31;;;;;;;60.40;41.07;;;8.50;99.90;;;;;;5011692;28;20348;-55
2021/04/19 06:17:02;;;;;;;59.53;41.03;;;8.50;99.90;;;;;;5028517;28;20233;-55
2021/04/19 06:19:31;;;;;;;63.67;42.73;;;8.50;99.90;;;;;;5022575;28;20335;-55
2021/04/19 06:21:59;;;;;;;61.10;40.33;;;8.50;99.90;;;;;;5029643;28;20314;-56
2021/04/19 06:24:27;;;;;;;59.47;38.10;;;8.50;99.90;;;;;;5030925;28;20240;-56
2021/04/19 06:26:54;;;;;;;58.53;40.20;;;8.50;99.90;;;;;;5049241;28;20236;-57
2021/04/19 06:29:26;;;;;;;59.53;41.03;;;8.50;99.90;;;;;;5029187;28;20243;-54
2021/04/19 06:31:56;;;;;;;59.40;39.23;;;8.50;99.90;;;;;;5022263;28;20242;-55
2021/04/19 06:34:23;;;;;;;55.93;37.63;;;8.60;99.90;;;;;;5010038;28;20716;-54
2021/04/19 06:36:51;;;;;;;56.77;38.07;;;8.60;99.90;;;;;;5012672;28;20269;-55
2021/04/19 06:39:21;;;;;;;50.53;37.10;;;8.60;99.90;;;;;;5009662;28;20288;-56
2021/04/19 06:41:48;;;;;;;47.60;35.00;;;8.60;99.90;;;;;;5024864;28;20225;-55
2021/04/19 06:44:16;;;;;;;48.90;34.13;;;8.50;99.90;;;;;;4993633;28;20240;-54
2021/04/19 06:46:45;;;;;;;50.83;36.03;;;8.50;99.90;;;;;;5008606;28;20241;-55
2021/04/19 06:49:14;;;;;;;48.33;33.90;;;8.60;99.90;;;;;;4991081;28;20318;-55
2021/04/19 06:51:43;;;;;;;48.10;35.20;;;8.50;99.90;;;;;;4989326;28;20292;-54
2021/04/19 06:54:12;;;;;;;51.23;35.73;;;8.60;99.90;;;;;;5002490;28;20237;-56
2021/04/19 06:56:42;;;;;;;52.00;36.07;;;8.60;99.90;;;;;;5010428;28;20782;-54
2021/04/19 06:59:12;;;;;;;55.37;38.10;;;8.70;99.90;;;;;;5015827;28;20688;-53
2021/04/19 07:01:42;;;;;;;53.70;37.10;;;8.70;99.90;;;;;;5028256;28;20289;-53
2021/04/19 07:04:13;;;;;;;53.03;37.60;;;8.70;99.90;;;;;;5008290;28;20717;-56
2021/04/19 07:06:41;;;;;;;51.07;36.27;;;8.80;99.90;;;;;;4998373;28;20238;-55
2021/04/19 07:09:25;;;;;;;51.07;36.50;;;8.90;99.90;;;;;;4991423;28;20294;-56
2021/04/19 07:11:56;;;;;;;49.93;36.70;;;9.00;99.90;;;;;;4999350;28;20581;-57
2021/04/19 07:14:28;;;;;;;51.30;38.13;;;9.00;99.90;;;;;;5006910;28;20772;-56
2021/04/19 07:16:56;;;;;;;50.17;37.00;;;9.10;99.90;;;;;;5004437;28;20571;-53
2021/04/19 07:19:24;;;;;;;52.23;37.03;;;9.20;99.90;;;;;;5005033;28;20239;-55
2021/04/19 07:21:52;;;;;;;49.47;36.23;;;9.20;99.90;;;;;;5008407;28;20590;-52
2021/04/19 07:24:20;;;;;;;49.77;36.93;;;9.30;99.90;;;;;;5009407;28;20238;-54
2021/04/19 07:26:50;;;;;;;47.97;34.83;;;9.40;99.90;;;;;;5009038;28;20753;-53
2021/04/19 07:29:18;;;;;;;52.43;35.87;;;9.40;99.90;;;;;;5011089;28;20654;-55
2021/04/19 07:31:49;;;;;;;49.10;35.93;;;9.50;99.90;;;;;;5007383;28;20253;-55
2021/04/19 07:34:19;;;;;;;50.57;37.63;;;9.50;99.90;;;;;;5008531;28;20241;-53
2021/04/19 07:36:52;;;;;;;51.10;36.87;;;9.40;99.90;;;;;;5019814;28;20241;-55
2021/04/19 07:39:22;;;;;;;49.23;35.53;;;9.40;99.90;;;;;;5009294;28;20640;-54
2021/04/19 07:41:52;;;;;;;52.33;36.07;;;9.40;99.90;;;;;;5008230;28;20254;-56
2021/04/19 07:47:37;;;;;;;49.97;34.90;;;9.50;99.90;;;;;;4894725;23;20246;-52
2021/04/19 07:50:13;;;;;;;48.00;34.20;;;9.50;99.90;;;;;;4889743;29;20601;-54
2021/04/19 07:52:56;;;;;;;47.03;34.23;;;9.50;99.90;;;;;;4873375;29;20295;-54
2021/04/19 07:55:27;;;;;;;44.87;34.13;;;9.60;99.90;;;;;;4874110;29;20244;-53
2021/04/19 07:58:21;;;;;;;44.10;32.57;;;9.80;99.90;;;;;;4884203;29;20243;-55
2021/04/19 08:00:49;;;;;;;43.03;32.03;;;9.90;99.90;;;;;;4874753;29;20248;-52
2021/04/19 08:03:19;;;;;;;47.57;33.90;;;10.00;99.90;;;;;;4892242;29;20235;-52
2021/04/19 08:05:50;;;;;;;43.00;32.10;;;10.00;99.90;;;;;;4892870;29;20259;-50
2021/04/19 08:08:28;;;;;;;41.23;31.13;;;10.00;99.90;;;;;;4891988;29;20275;-53
2021/04/19 08:11:08;;;;;;;43.00;33.30;;;10.00;99.90;;;;;;4891495;29;20592;-53
2021/04/19 08:13:43;;;;;;;38.90;29.80;;;10.00;99.90;;;;;;4892474;29;20239;-50
2021/04/19 08:16:15;;;;;;;48.50;35.37;;;9.90;99.90;;;;;;4892125;29;20647;-49
2021/04/19 08:18:50;;;;;;;50.27;36.27;;;9.90;99.90;;;;;;4892642;29;20244;-51
2021/04/19 08:21:25;;;;;;;60.43;41.23;;;9.90;99.90;;;;;;4891537;29;20235;-53
2021/04/19 08:23:54;;;;;;;57.13;39.57;;;9.90;99.90;;;;;;4887752;29;20231;-51
2021/04/19 08:26:21;;;;;;;55.63;39.50;;;10.00;99.90;;;;;;4892198;29;20355;-53
2021/04/19 08:28:50;;;;;;;53.73;37.03;;;9.90;99.90;;;;;;4891899;29;20267;-51
2021/04/19 08:31:18;;;;;;;50.47;37.43;;;10.00;99.90;;;;;;4891080;29;20235;-50
2021/04/19 08:33:47;;;;;;;53.10;38.50;;;10.30;99.90;;;;;;4891404;29;20242;-51
2021/04/19 08:36:18;;;;;;;54.03;37.70;;;10.40;99.90;;;;;;4892239;29;20249;-50
2021/04/19 08:38:48;;;;;;;52.10;37.57;;;10.60;99.90;;;;;;4892254;29;20321;-49
2021/04/19 08:41:16;;;;;;;54.83;39.20;;;10.60;99.90;;;;;;4892164;29;20264;-51
2021/04/19 08:43:44;;;;;;;56.63;39.53;;;10.70;99.90;;;;;;4894394;29;20875;-50
2021/04/19 08:46:14;;;;;;;60.43;41.37;;;10.60;99.90;;;;;;4897187;29;20235;-50
2021/04/19 08:48:44;;;;;;;60.03;40.87;;;10.50;99.90;;;;;;4895736;29;20239;-52
2021/04/19 08:51:12;;;;;;;51.60;36.97;;;10.50;99.90;;;;;;4894790;29;20250;-49
2021/04/19 08:53:40;;;;;;;56.27;39.13;;;10.60;99.90;;;;;;4893684;29;20238;-49
2021/04/19 08:56:08;;;;;;;52.27;36.77;;;10.60;99.90;;;;;;4901875;29;20650;-50
2021/04/19 08:58:36;;;;;;;49.37;36.70;;;10.70;99.90;;;;;;4893204;29;20346;-51
2021/04/19 09:01:04;;;;;;;45.10;34.23;;;10.80;99.90;;;;;;4893367;29;20290;-52
2021/04/19 09:03:32;;;;;;;43.97;33.00;;;10.80;99.90;;;;;;4893326;29;20322;-51
2021/04/19 09:06:14;;;;;;;44.80;33.27;;;10.90;99.90;;;;;;4893409;29;20730;-51
2021/04/19 09:08:42;;;;;;;41.27;31.43;;;10.90;99.90;;;;;;4893904;29;20622;-50
2021/04/19 09:11:11;;;;;;;41.33;32.27;;;11.00;99.90;;;;;;4893956;29;20626;-51
2021/04/19 09:13:42;;;;;;;44.83;33.77;;;11.10;99.90;;;;;;4893162;29;20288;-49
2021/04/19 09:16:16;;;;;;;45.17;36.00;;;11.10;99.90;;;;;;4894335;29;20242;-50
2021/04/19 09:18:46;;;;;;;43.57;34.50;;;11.00;99.90;;;;;;4893953;29;20240;-52
2021/04/19 09:21:37;;;;;;;43.60;32.80;;;11.10;99.90;;;;;;4892016;29;20259;-51
2021/04/19 09:24:08;;;;;;;41.13;33.23;;;11.20;99.90;;;;;;4894076;29;20240;-49
2021/04/19 09:26:54;;;;;;;39.07;31.47;;;11.40;99.90;;;;;;4893765;29;20242;-50
2021/04/19 09:29:45;;;;;;;36.97;28.77;;;11.60;99.90;;;;;;4900582;29;20259;-50
2021/04/19 09:32:24;;;;;;;33.83;29.23;;;11.80;99.90;;;;;;4898986;29;20240;-49
2021/04/19 09:34:58;;;;;;;32.70;28.43;;;12.30;99.90;;;;;;4895873;29;20243;-50
2021/04/19 09:37:54;;;;;;;32.47;28.77;;;12.90;99.90;;;;;;4900649;29;20772;-50
2021/04/19 09:40:26;;;;;;;29.77;26.57;;;12.80;99.90;;;;;;4901990;29;20725;-52
2021/04/19 09:43:09;;;;;;;29.07;25.97;;;12.80;99.90;;;;;;4903060;29;20239;-49
2021/04/19 09:45:56;;;;;;;29.60;24.80;;;12.70;99.90;;;;;;4897707;29;20598;-49
2021/04/19 09:48:55;;;;;;;23.90;21.33;;;12.70;99.90;;;;;;4891932;29;20236;-50
2021/04/19 09:51:26;;;;;;;25.93;23.13;;;12.90;99.90;;;;;;4892873;29;20664;-50
2021/04/19 09:54:00;;;;;;;25.40;21.50;;;12.80;99.90;;;;;;4895781;29;20251;-51
2021/04/19 09:56:33;;;;;;;24.00;21.27;;;12.90;99.90;;;;;;4893515;29;20249;-50
2021/04/19 09:59:02;;;;;;;23.97;21.37;;;13.20;99.90;;;;;;4890877;29;20252;-52
2021/04/19 10:01:31;;;;;;;23.27;20.90;;;13.20;99.90;;;;;;4892628;29;20264;-51
2021/04/19 10:03:59;;;;;;;23.50;21.10;;;13.60;99.90;;;;;;4893141;29;20237;-49
2021/04/19 10:06:31;;;;;;;25.13;22.53;;;14.10;99.90;;;;;;4897438;29;20506;-49
2021/04/19 10:09:02;;;;;;;25.83;23.13;;;14.50;99.90;;;;;;4904594;29;20236;-51
2021/04/19 10:11:34;;;;;;;24.10;21.63;;;14.60;99.90;;;;;;4894514;29;20276;-52
2021/04/19 10:14:10;;;;;;;22.30;20.03;;;14.60;99.90;;;;;;4897568;29;20245;-50
2021/04/19 10:16:43;;;;;;;22.23;19.83;;;14.90;99.90;;;;;;4892441;29;20247;-50
2021/04/19 10:19:11;;;;;;;21.63;19.47;;;15.20;99.90;;;;;;4893117;29;20244;-48
2021/04/19 10:21:38;;;;;;;22.13;19.93;;;15.70;99.90;;;;;;4892036;29;20252;-49
2021/04/19 10:24:16;;;;;;;22.07;19.80;;;16.10;99.90;;;;;;4899562;29;20747;-49
2021/04/19 10:26:44;;;;;;;20.67;18.50;;;16.30;99.90;;;;;;4893135;29;20249;-48
2021/04/19 10:29:15;;;;;;;21.23;18.97;;;16.40;99.90;;;;;;4893201;29;20714;-49
2021/04/19 10:31:54;;;;;;;21.60;19.50;;;16.60;99.90;;;;;;4891566;29;20661;-52
2021/04/19 10:34:24;;;;;;;20.67;18.60;;;16.60;99.90;;;;;;4892712;29;20508;-49
2021/04/19 10:36:55;;;;;;;20.33;18.30;;;16.60;99.90;;;;;;4895646;29;20229;-50
2021/04/19 10:39:25;;;;;;;19.57;17.37;;;16.50;99.90;;;;;;4902133;29;20244;-49
2021/04/19 10:41:57;;;;;;;21.87;19.57;;;16.40;99.90;;;;;;4901514;29;20239;-49
2021/04/19 10:44:35;;;;;;;21.03;18.67;;;16.60;99.90;;;;;;4898806;29;20272;-51
2021/04/19 10:47:03;;;;;;;19.03;17.17;;;16.60;99.90;;;;;;4891729;29;20233;-48
2021/04/19 10:49:31;;;;;;;20.00;17.93;;;17.10;99.90;;;;;;4893698;29;20280;-50
2021/04/19 10:52:01;;;;;;;19.07;17.17;;;17.00;99.90;;;;;;4892535;29;20308;-48
2021/04/19 10:54:30;;;;;;;19.10;17.27;;;17.00;99.90;;;;;;4908743;29;20250;-50
2021/04/19 10:57:00;;;;;;;18.97;17.03;;;17.40;99.90;;;;;;4892239;29;20242;-51
2021/04/19 10:59:28;;;;;;;18.43;16.60;;;17.60;99.90;;;;;;4905262;29;20246;-49
2021/04/19 11:02:01;;;;;;;19.37;17.40;;;17.90;99.90;;;;;;4890325;29;20245;-48
2021/04/19 11:04:30;;;;;;;18.23;16.43;;;18.00;99.90;;;;;;4891853;29;20334;-49
2021/04/19 11:07:30;;;;;;;20.03;18.03;;;18.10;99.90;;;;;;4891178;29;20301;-49
2021/04/19 11:10:20;;;;;;;18.33;16.43;;;17.90;99.90;;;;;;4889598;29;20325;-49
2021/04/19 11:13:01;;;;;;;19.63;17.73;;;17.90;99.90;;;;;;4891648;29;20237;-49
2021/04/19 11:15:38;;;;;;;17.50;15.70;;;17.60;99.90;;;;;;4891210;29;20242;-48
2021/04/19 11:18:20;;;;;;;18.13;16.20;;;17.80;99.90;;;;;;4892366;29;20261;-49
2021/04/19 11:20:49;;;;;;;18.03;16.23;;;18.10;99.90;;;;;;4890953;29;20241;-50
2021/04/19 11:23:24;;;;;;;16.87;15.17;;;18.40;99.90;;;;;;4892525;29;20250;-50
2021/04/19 11:25:54;;;;;;;17.40;15.60;;;18.80;99.90;;;;;;4892273;29;20235;-49
2021/04/19 11:28:29;;;;;;;17.60;15.70;;;19.20;99.90;;;;;;4891701;29;20585;-48
2021/04/19 11:31:04;;;;;;;15.87;14.37;;;19.30;99.90;;;;;;4902036;29;20251;-48
2021/04/19 11:33:32;;;;;;;17.30;15.50;;;19.40;99.90;;;;;;4898934;29;20267;-48
2021/04/19 11:36:01;;;;;;;16.50;14.90;;;19.70;99.90;;;;;;4900485;29;20243;-49
2021/04/19 11:38:29;;;;;;;16.10;14.60;;;19.60;99.90;;;;;;4902395;29;20629;-48
2021/04/19 11:41:01;;;;;;;15.80;14.20;;;19.70;99.90;;;;;;4896076;29;20247;-48
2021/04/19 11:43:32;;;;;;;15.90;14.30;;;19.50;99.90;;;;;;4894247;29;20292;-48
2021/04/19 11:46:02;;;;;;;16.60;14.47;;;19.60;99.90;;;;;;4873580;29;20348;-48
2021/04/19 11:48:31;;;;;;;16.03;14.53;;;19.20;99.90;;;;;;4906774;29;20252;-50
2021/04/19 11:51:00;;;;;;;16.40;14.70;;;19.10;99.90;;;;;;4884549;29;20352;-47
2021/04/19 11:53:30;;;;;;;15.33;13.83;;;19.10;99.90;;;;;;4885302;29;20248;-47
2021/04/19 11:55:58;;;;;;;16.03;14.37;;;19.00;99.90;;;;;;4889533;29;20514;-47
2021/04/19 11:58:37;;;;;;;15.33;13.73;;;18.70;99.90;;;;;;4890663;29;20342;-46
2021/04/19 12:01:06;;;;;;;14.90;13.50;;;18.70;99.90;;;;;;4891283;29;20603;-47
2021/04/19 12:03:36;;;;;;;14.57;13.07;;;18.30;99.90;;;;;;4890736;29;20248;-47
2021/04/19 12:06:05;;;;;;;16.10;14.40;;;18.30;99.90;;;;;;4892368;29;20243;-48
2021/04/19 12:08:33;;;;;;;15.53;13.87;;;18.20;99.90;;;;;;4891318;29;20252;-47
2021/04/19 12:11:00;;;;;;;15.97;14.20;;;17.80;99.90;;;;;;4891920;29;20299;-46
2021/04/19 12:13:28;;;;;;;15.13;12.57;;;17.60;99.90;;;;;;4892398;29;20271;-46
2021/04/19 12:15:57;;;;;;;15.00;13.50;;;17.70;99.90;;;;;;4893909;29;20247;-46
2021/04/19 12:18:25;;;;;;;15.10;13.50;;;17.90;99.90;;;;;;4895208;29;20237;-46
2021/04/19 12:20:52;;;;;;;15.87;14.27;;;17.90;99.90;;;;;;4894927;29;20247;-46
2021/04/19 12:23:20;;;;;;;15.60;14.00;;;17.80;99.90;;;;;;4895242;29;20246;-47
2021/04/19 12:25:50;;;;;;;14.57;13.10;;;17.60;99.90;;;;;;4895841;29;20749;-46
2021/04/19 12:28:18;;;;;;;14.83;13.33;;;17.60;99.90;;;;;;4896251;29;20266;-46
2021/04/19 12:30:46;;;;;;;16.97;15.27;;;17.70;99.90;;;;;;4894451;29;20594;-46
2021/04/19 12:33:15;;;;;;;16.73;15.03;;;17.60;99.90;;;;;;4898468;29;20249;-46
2021/04/19 12:35:42;;;;;;;16.37;14.67;;;17.30;99.90;;;;;;4899991;29;20242;-46
2021/04/19 12:38:10;;;;;;;14.90;13.37;;;17.10;99.90;;;;;;4897266;29;20259;-46
2021/04/19 12:40:38;;;;;;;14.60;13.00;;;17.20;99.90;;;;;;4895058;29;20268;-46
2021/04/19 12:43:24;;;;;;;14.49;12.69;;;17.30;99.90;;;;;;2224646;29;10023784;-46
2021/04/19 12:45:53;;;;;;;14.43;13.03;;;17.00;99.90;;;;;;4215212;29;10001242;-46
2021/04/19 12:48:25;;;;;;;13.90;12.47;;;17.10;99.90;;;;;;4890982;29;20240;-47
2021/04/19 12:50:52;;;;;;;13.43;12.10;;;17.30;99.90;;;;;;4893071;29;20247;-46
2021/04/19 12:53:21;;;;;;;13.50;12.10;;;17.60;99.90;;;;;;4893535;29;20249;-48
2021/04/19 12:55:48;;;;;;;13.30;12.00;;;17.80;99.90;;;;;;4893455;29;20253;-46
2021/04/19 12:58:22;;;;;;;15.10;13.60;;;17.90;99.90;;;;;;4888844;29;20645;-48
2021/04/19 13:00:49;;;;;;;12.63;11.37;;;17.90;99.90;;;;;;4892241;29;20243;-48
2021/04/19 13:03:17;;;;;;;13.00;11.70;;;17.90;99.90;;;;;;4893124;29;20247;-47